Time;durP1;ratioP1;P1;durP2;ratioP2;P2;SDS_P1;SDS_P2;PMS_P1;PMS_P2;Temp;Humidity;BMP_temperature;BMP_pressure;BME280_temperature;BME280_humidity;BME280_pressure;Samples;Min_cycle;Max_cycle;Signal;HPM_P1;HPM_P2
2022/10/29 00:00:29;;;;;;;;;41.40;33.00;;;;;15.98;80.11;99456.75;6094754;28;96779;-62
2022/10/29 00:03:33;;;;;;;;;38.20;31.40;;;;;15.97;80.06;99457.84;6094075;28;97469;-62
2022/10/29 00:06:37;;;;;;;;;36.80;31.40;;;;;15.99;79.99;99469.31;6093262;28;96455;-62
2022/10/29 00:09:40;;;;;;;;;36.00;32.00;;;;;16.05;79.12;99465.63;6092902;28;96797;-62
2022/10/29 00:12:43;;;;;;;;;35.60;31.40;;;;;16.00;79.04;99465.53;6075948;28;96747;-63
2022/10/29 00:15:48;;;;;;;;;34.80;32.00;;;;;16.03;78.84;99465.84;6096131;28;96212;-62
2022/10/29 00:18:51;;;;;;;;;36.00;32.00;;;;;16.03;78.87;99459.59;6098576;28;96332;-62
2022/10/29 00:21:54;;;;;;;;;34.60;30.60;;;;;15.91;79.16;99456.09;6098529;28;96460;-61
2022/10/29 00:24:58;;;;;;;;;38.00;32.60;;;;;15.86;78.82;99454.09;6099284;28;96684;-61
2022/10/29 00:28:02;;;;;;;;;35.80;32.00;;;;;15.77;79.67;99450.13;6104512;28;96907;-62
2022/10/29 00:31:08;;;;;;;;;38.00;32.00;;;;;15.79;78.75;99439.00;6099220;28;96596;-64
2022/10/29 00:34:12;;;;;;;;;38.00;33.00;;;;;15.81;79.23;99447.75;6091348;28;96539;-62
2022/10/29 00:37:16;;;;;;;;;39.20;33.00;;;;;15.78;79.40;99445.53;6097817;28;96877;-62
2022/10/29 00:40:19;;;;;;;;;40.00;32.00;;;;;15.71;79.82;99440.22;6098961;28;96317;-63
2022/10/29 00:43:25;;;;;;;;;37.00;33.00;;;;;15.69;79.59;99433.34;6096824;28;96302;-62
2022/10/29 00:46:33;;;;;;;;;38.00;33.40;;;;;15.54;80.67;99412.94;6097975;28;96876;-63
2022/10/29 00:49:40;;;;;;;;;30.20;28.80;;;;;15.66;80.46;99437.38;6093662;28;96254;-61
2022/10/29 00:52:47;;;;;;;;;38.40;32.40;;;;;15.76;80.24;99442.19;6098542;28;96997;-62
2022/10/29 00:55:50;;;;;;;;;32.50;30.00;;;;;15.75;80.02;99435.09;6097185;28;96894;-62
2022/10/29 00:58:54;;;;;;;;;29.20;27.20;;;;;15.74;80.21;99438.88;6080145;28;96689;-62
2022/10/29 01:01:59;;;;;;;;;37.60;33.00;;;;;15.82;79.60;99441.25;6082960;28;96480;-62
2022/10/29 01:05:05;;;;;;;;;31.00;28.00;;;;;15.72;79.11;99406.53;6088352;28;96258;-63
2022/10/29 01:08:08;;;;;;;;;34.00;30.00;;;;;15.85;79.22;99427.16;6067628;28;96405;-63
2022/10/29 01:11:25;;;;;;;;;30.00;26.00;;;;;15.83;79.46;99440.19;6072042;28;96817;-62
2022/10/29 01:14:39;;;;;;;;;32.00;30.00;;;;;15.89;78.99;99434.56;6073908;28;96270;-64
2022/10/29 01:17:55;;;;;;;;;38.00;32.00;;;;;15.81;79.45;99432.25;6070660;28;96637;-62
2022/10/29 01:21:36;;;;;;;;;34.20;30.00;;;;;15.69;79.87;99430.63;6072791;28;97158;-62
2022/10/29 01:24:54;;;;;;;;;32.00;30.20;;;;;15.65;80.27;99432.19;6072342;28;96342;-62
2022/10/29 01:28:10;;;;;;;;;30.80;28.20;;;;;15.63;79.64;99418.03;6071139;28;96335;-62
2022/10/29 01:31:24;;;;;;;;;39.80;33.00;;;;;15.52;79.95;99406.94;6056298;28;98408;-62
2022/10/29 01:34:36;;;;;;;;;36.00;32.00;;;;;15.49;80.48;99415.53;6073232;28;96456;-62
2022/10/29 01:37:46;;;;;;;;;32.40;30.00;;;;;15.46;80.71;99417.91;6087776;28;96680;-62
2022/10/29 01:40:58;;;;;;;;;36.60;31.60;;;;;15.40;80.43;99406.09;6074720;28;96362;-61
2022/10/29 01:44:09;;;;;;;;;33.00;30.00;;;;;15.31;80.56;99393.97;6067680;28;96882;-63
2022/10/29 01:47:18;;;;;;;;;32.60;30.00;;;;;15.42;80.46;99401.28;6073672;28;96394;-62
2022/10/29 01:50:24;;;;;;;;;32.00;29.20;;;;;15.33;80.87;99400.00;6074042;28;96733;-61
2022/10/29 01:53:30;;;;;;;;;32.00;28.80;;;;;15.35;80.75;99406.00;6073600;28;96411;-62
2022/10/29 01:56:33;;;;;;;;;30.60;27.60;;;;;15.36;80.93;99398.69;6073585;28;96919;-63
2022/10/29 01:59:37;;;;;;;;;35.50;30.00;;;;;15.31;80.78;99404.84;6073327;28;96441;-63
2022/10/29 02:03:15;;;;;;;;;28.75;26.50;;;;;15.29;80.63;99406.16;6072807;28;96268;-63
2022/10/29 02:06:31;;;;;;;;;32.20;27.20;;;;;15.21;81.55;99396.47;6058472;28;96460;-62
2022/10/29 02:09:41;;;;;;;;;29.75;25.00;;;;;15.23;81.22;99398.97;6078836;28;96404;-62
2022/10/29 02:12:49;;;;;;;;;29.75;27.00;;;;;15.24;80.94;99389.75;6096919;28;97595;-63
2022/10/29 02:15:57;;;;;;;;;32.33;29.00;;;;;15.21;81.46;99382.88;6095275;28;96407;-65
2022/10/29 02:19:02;;;;;;;;;31.00;30.00;;;;;15.18;81.49;99370.63;6095526;28;96397;-62
2022/10/29 02:22:05;;;;;;;;;31.00;28.00;;;;;15.16;81.86;99369.19;6096385;28;96322;-64
2022/10/29 02:25:11;;;;;;;;;34.20;29.80;;;;;15.23;81.73;99372.63;6097217;28;96658;-62
2022/10/29 02:28:14;;;;;;;;;36.00;32.00;;;;;15.21;81.93;99376.63;6093018;28;96866;-63
2022/10/29 02:31:18;;;;;;;;;30.00;28.00;;;;;15.25;82.08;99375.91;6097085;28;96561;-62
2022/10/29 02:34:22;;;;;;;;;32.60;30.00;;;;;15.21;82.31;99372.03;6095980;28;96105;-62
2022/10/29 02:37:26;;;;;;;;;29.40;27.80;;;;;15.27;82.21;99373.78;6095245;28;96890;-65
2022/10/29 02:40:29;;;;;;;;;31.00;28.00;;;;;15.27;82.18;99376.50;6095505;28;96515;-63
2022/10/29 02:43:32;;;;;;;;;32.25;26.25;;;;;15.26;82.09;99372.13;6096311;28;97087;-63
2022/10/29 02:46:38;;;;;;;;;29.00;27.00;;;;;15.30;81.21;99367.88;6078097;28;96895;-63
2022/10/29 02:49:43;;;;;;;;;29.40;27.60;;;;;15.29;81.39;99373.56;6095979;28;96317;-62
2022/10/29 02:52:46;;;;;;;;;31.60;28.60;;;;;15.25;81.30;99372.41;6096018;28;96910;-62
2022/10/29 02:55:49;;;;;;;;;34.50;30.00;;;;;15.26;81.11;99387.59;6093133;28;96741;-63
2022/10/29 02:58:53;;;;;;;;;34.40;30.00;;;;;15.16;81.32;99374.63;6102753;28;96314;-62
2022/10/29 03:01:56;;;;;;;;;30.50;28.00;;;;;15.15;81.24;99386.56;6098671;28;96432;-62
2022/10/29 03:05:01;;;;;;;;;33.75;29.25;;;;;15.18;81.00;99381.50;6072936;28;97678;-63
2022/10/29 03:08:05;;;;;;;;;30.25;29.00;;;;;14.98;80.79;99347.63;6093315;28;97427;-62
2022/10/29 03:11:08;;;;;;;;;30.00;27.00;;;;;14.96;80.98;99366.88;6088441;28;96551;-62
2022/10/29 03:14:12;;;;;;;;;33.00;28.50;;;;;15.03;80.51;99364.03;6095413;28;97515;-63
2022/10/29 03:17:15;;;;;;;;;29.00;26.00;;;;;15.00;80.74;99364.53;6093794;28;97839;-62
2022/10/29 03:20:20;;;;;;;;;29.60;28.00;;;;;14.99;81.33;99365.59;6094667;28;96444;-62
2022/10/29 03:23:24;;;;;;;;;30.40;26.40;;;;;14.94;81.71;99388.03;6092757;28;96481;-62
2022/10/29 03:26:27;;;;;;;;;25.50;23.75;;;;;14.97;81.75;99367.69;6078937;28;96672;-62
2022/10/29 03:29:31;;;;;;;;;28.00;26.40;;;;;14.98;81.38;99372.06;6093217;28;96777;-62
2022/10/29 03:32:34;;;;;;;;;29.00;27.00;;;;;14.95;81.09;99359.81;6094183;28;96355;-63
2022/10/29 03:35:39;;;;;;;;;29.00;27.00;;;;;14.91;81.61;99363.22;6073125;28;96812;-63
2022/10/29 03:38:42;;;;;;;;;32.20;26.80;;;;;14.90;81.40;99359.69;6093571;28;96557;-62
2022/10/29 03:41:46;;;;;;;;;30.40;29.00;;;;;14.95;80.90;99362.53;6075797;28;97201;-62
2022/10/29 03:44:49;;;;;;;;;29.00;28.00;;;;;14.94;81.10;99370.91;6094053;28;96439;-62
2022/10/29 03:47:53;;;;;;;;;28.60;26.20;;;;;15.00;80.34;99369.97;6094402;28;96386;-62
2022/10/29 03:51:00;;;;;;;;;29.00;27.25;;;;;14.95;80.28;99359.00;6097281;28;96470;-63
2022/10/29 03:54:03;;;;;;;;;28.00;25.00;;;;;14.93;79.68;99367.38;6099677;28;97517;-63
2022/10/29 03:57:07;;;;;;;;;29.60;25.20;;;;;14.97;79.78;99360.38;6098632;28;96511;-62
2022/10/29 04:00:11;;;;;;;;;28.25;26.75;;;;;14.84;80.46;99373.41;6102617;28;96430;-63
2022/10/29 04:03:14;;;;;;;;;27.50;25.50;;;;;14.93;79.77;99352.97;6099732;28;96362;-63
2022/10/29 04:06:19;;;;;;;;;27.40;25.40;;;;;14.80;80.30;99345.91;6083298;28;97324;-62
2022/10/29 04:09:22;;;;;;;;;27.00;23.60;;;;;14.73;80.92;99340.59;6081611;28;97380;-62
2022/10/29 04:12:26;;;;;;;;;23.50;22.00;;;;;14.74;80.92;99349.56;6099598;28;96342;-62
2022/10/29 04:15:29;;;;;;;;;25.80;23.00;;;;;14.73;81.28;99365.03;6099986;28;96288;-62
2022/10/29 04:18:32;;;;;;;;;24.25;22.00;;;;;14.77;81.10;99372.69;6080851;28;96655;-62
2022/10/29 04:21:37;;;;;;;;;25.75;23.00;;;;;14.72;81.12;99374.22;6099445;28;96105;-67
2022/10/29 04:25:01;;;;;;;;;24.00;23.40;;;;;14.77;81.14;99388.97;6099287;28;96379;-62
2022/10/29 04:28:25;;;;;;;;;22.40;21.00;;;;;14.80;80.77;99380.38;6090638;28;96425;-61
2022/10/29 04:31:46;;;;;;;;;26.40;24.40;;;;;14.70;80.84;99376.34;6103522;28;96314;-63
2022/10/29 04:34:49;;;;;;;;;27.40;25.40;;;;;14.71;80.39;99374.44;6099879;28;96256;-62
2022/10/29 04:37:55;;;;;;;;;26.00;24.00;;;;;14.73;80.13;99377.75;6099059;28;96974;-61
2022/10/29 04:40:59;;;;;;;;;22.00;21.00;;;;;14.70;80.59;99386.38;6082647;28;96265;-62
2022/10/29 04:44:02;;;;;;;;;23.60;22.00;;;;;14.71;80.68;99377.16;6099310;28;96515;-65
2022/10/29 04:47:05;;;;;;;;;23.00;21.00;;;;;14.65;81.23;99372.69;6099687;28;96300;-62
2022/10/29 04:50:09;;;;;;;;;25.00;22.40;;;;;14.62;81.33;99371.25;6098848;28;96386;-62
2022/10/29 04:53:15;;;;;;;;;25.20;22.00;;;;;14.63;81.90;99382.94;6066035;28;97871;-62
2022/10/29 04:56:18;;;;;;;;;28.80;24.40;;;;;14.57;82.66;99382.00;6081835;28;97624;-62
2022/10/29 04:59:21;;;;;;;;;21.00;21.00;;;;;14.66;82.12;99371.66;6096719;28;96274;-62
2022/10/29 05:02:25;;;;;;;;;21.40;20.40;;;;;14.69;81.85;99372.00;6100692;28;97215;-62
2022/10/29 05:05:29;;;;;;;;;23.33;21.00;;;;;14.69;81.79;99374.69;6096984;28;97506;-61
2022/10/29 05:08:34;;;;;;;;;23.20;21.00;;;;;14.64;81.85;99380.00;6100377;28;96501;-62
2022/10/29 05:11:37;;;;;;;;;27.00;23.50;;;;;14.58;82.13;99370.09;6106106;28;96303;-62
2022/10/29 05:14:40;;;;;;;;;24.80;22.80;;;;;14.70;82.27;99395.34;6084216;28;96537;-62
2022/10/29 05:17:43;;;;;;;;;22.20;21.20;;;;;14.72;82.31;99389.66;6098265;28;96309;-62
2022/10/29 05:20:47;;;;;;;;;23.40;21.40;;;;;14.79;82.03;99395.00;6098440;28;96210;-62
2022/10/29 05:23:51;;;;;;;;;24.50;21.00;;;;;14.79;81.71;99386.84;6098630;28;96612;-62
2022/10/29 05:26:55;;;;;;;;;21.40;19.40;;;;;14.85;81.65;99403.03;6080497;28;96750;-63
2022/10/29 05:29:58;;;;;;;;;25.40;24.00;;;;;14.92;80.89;99392.84;6084003;28;97142;-62
2022/10/29 05:33:01;;;;;;;;;23.60;21.60;;;;;14.86;81.08;99399.22;6098173;28;96235;-62
2022/10/29 05:36:05;;;;;;;;;24.60;22.60;;;;;14.88;80.94;99390.84;6098374;28;96325;-62
2022/10/29 05:39:11;;;;;;;;;24.60;22.00;;;;;14.87;80.96;99392.75;6097381;28;96868;-62
2022/10/29 05:42:14;;;;;;;;;26.00;21.60;;;;;14.82;80.95;99375.50;6078980;28;96130;-64
2022/10/29 05:45:18;;;;;;;;;26.40;24.40;;;;;14.66;81.56;99331.72;6095750;28;96788;-62
2022/10/29 05:48:21;;;;;;;;;23.00;21.60;;;;;14.83;81.52;99350.84;6082854;28;98259;-62
2022/10/29 05:51:25;;;;;;;;;22.20;20.60;;;;;14.94;81.54;99351.91;6100716;28;96249;-62
2022/10/29 05:54:29;;;;;;;;;19.80;18.80;;;;;15.03;81.05;99350.47;6097779;28;96283;-63
2022/10/29 05:57:33;;;;;;;;;20.00;18.25;;;;;15.11;80.97;99372.63;6097137;28;96382;-64
2022/10/29 06:00:39;;;;;;;;;20.00;17.20;;;;;15.33;80.12;99385.59;6098064;28;96725;-62
2022/10/29 06:03:42;;;;;;;;;20.00;18.40;;;;;15.42;79.57;99356.97;6095902;28;96333;-62
2022/10/29 06:06:46;;;;;;;;;18.00;17.00;;;;;15.54;79.08;99385.78;6097995;28;97245;-62
2022/10/29 06:09:50;;;;;;;;;20.00;19.00;;;;;15.57;78.77;99379.88;6092558;28;96853;-62
2022/10/29 06:12:54;;;;;;;;;21.25;20.00;;;;;15.69;78.21;99403.44;6097563;28;96861;-62
2022/10/29 06:15:59;;;;;;;;;22.80;20.00;;;;;15.70;77.30;99391.50;6097871;28;96532;-63
2022/10/29 06:19:03;;;;;;;;;21.00;18.00;;;;;15.59;77.28;99387.75;6097210;28;96370;-62
2022/10/29 06:22:07;;;;;;;;;23.00;19.00;;;;;15.63;77.16;99394.41;6097956;28;96212;-61
2022/10/29 06:25:12;;;;;;;;;22.00;19.33;;;;;15.59;77.22;99382.31;6097616;28;96553;-62
2022/10/29 06:28:17;;;;;;;;;22.50;19.50;;;;;15.62;77.44;99394.63;6059130;28;97328;-62
2022/10/29 06:31:21;;;;;;;;;21.60;19.40;;;;;15.69;77.30;99398.00;6095445;28;96348;-61
2022/10/29 06:34:24;;;;;;;;;19.00;19.00;;;;;15.67;77.37;99406.44;6102848;28;96275;-62
2022/10/29 06:37:28;;;;;;;;;18.40;16.40;;;;;15.64;77.20;99409.59;6100144;28;96364;-61
2022/10/29 06:40:33;;;;;;;;;19.50;17.50;;;;;15.64;77.36;99398.75;6096796;28;96341;-62
2022/10/29 06:43:36;;;;;;;;;18.60;17.60;;;;;15.80;76.92;99408.03;6080395;28;96286;-61
2022/10/29 06:46:40;;;;;;;;;16.40;15.40;;;;;15.93;75.91;99399.59;6097269;28;96374;-63
2022/10/29 06:49:43;;;;;;;;;18.00;16.00;;;;;16.11;75.49;99399.38;6097022;28;96942;-61
2022/10/29 06:52:54;;;;;;;;;18.50;17.50;;;;;16.48;73.83;99403.25;6095692;28;96217;-62
2022/10/29 06:56:00;;;;;;;;;19.50;17.00;;;;;16.71;72.13;99410.44;6095137;28;96246;-63
2022/10/29 06:59:03;;;;;;;;;18.00;16.20;;;;;17.08;70.30;99410.75;6096749;28;96254;-61
2022/10/29 07:02:06;;;;;;;;;20.60;16.60;;;;;17.35;68.45;99407.31;6094101;28;97100;-64
2022/10/29 07:05:10;;;;;;;;;16.00;15.60;;;;;17.77;66.87;99430.19;6095124;28;96839;-62
2022/10/29 07:08:14;;;;;;;;;18.60;16.60;;;;;18.75;62.35;99431.72;6096885;28;96319;-63
2022/10/29 07:11:18;;;;;;;;;16.60;15.60;;;;;19.87;58.07;99439.47;6097061;28;96426;-62
2022/10/29 07:14:22;;;;;;;;;17.00;16.00;;;;;20.69;53.61;99433.06;6097074;28;96340;-62
2022/10/29 07:17:25;;;;;;;;;15.20;15.20;;;;;22.18;49.56;99435.13;6082304;28;98426;-62
2022/10/29 07:20:30;;;;;;;;;17.25;16.25;;;;;23.14;46.63;99448.91;6102374;28;96369;-64
2022/10/29 07:23:33;;;;;;;;;15.00;14.75;;;;;24.76;42.48;99449.59;6091687;28;97362;-63
2022/10/29 07:26:38;;;;;;;;;18.00;16.00;;;;;26.75;37.73;99450.78;6097369;28;96262;-62
2022/10/29 07:29:42;;;;;;;;;12.00;11.20;;;;;28.54;33.89;99456.59;6100196;28;96424;-64
2022/10/29 07:32:45;;;;;;;;;15.75;15.00;;;;;29.95;32.16;99457.25;6100696;28;96346;-64
2022/10/29 07:35:49;;;;;;;;;16.60;15.00;;;;;31.11;30.58;99459.28;6098736;28;96254;-64
2022/10/29 07:38:52;;;;;;;;;14.60;13.60;;;;;32.03;27.90;99465.22;6095209;28;96561;-64
2022/10/29 07:41:56;;;;;;;;;13.80;13.00;;;;;31.45;28.84;99460.88;6097525;28;96272;-64
2022/10/29 07:45:01;;;;;;;;;15.00;13.00;;;;;29.97;30.52;99448.56;6081032;28;96510;-64
2022/10/29 07:48:07;;;;;;;;;13.00;11.40;;;;;29.26;31.73;99449.16;6101587;28;96431;-67
2022/10/29 07:51:11;;;;;;;;;12.00;11.40;;;;;29.30;31.59;99452.09;6083936;28;96670;-65
2022/10/29 07:54:14;;;;;;;;;15.00;12.60;;;;;29.84;30.79;99452.38;6101227;28;97595;-64
2022/10/29 07:57:21;;;;;;;;;15.00;13.60;;;;;29.62;30.32;99461.78;6098028;28;96339;-64
2022/10/29 08:00:25;;;;;;;;;14.00;12.00;;;;;28.79;31.42;99464.09;6100531;28;96295;-64
2022/10/29 08:03:28;;;;;;;;;15.50;13.75;;;;;27.78;33.01;99461.66;6098172;28;97001;-64
2022/10/29 08:06:31;;;;;;;;;13.00;12.00;;;;;27.35;34.34;99465.03;6100094;28;96408;-64
2022/10/29 08:09:35;;;;;;;;;13.00;11.00;;;;;27.24;34.25;99463.66;6098492;28;96160;-63
2022/10/29 08:12:39;;;;;;;;;11.20;11.00;;;;;27.49;33.94;99473.25;6100719;28;96410;-63
2022/10/29 08:15:46;;;;;;;;;15.00;12.00;;;;;28.81;32.22;99467.38;6117157;28;96365;-63
2022/10/29 08:18:49;;;;;;;;;11.20;11.20;;;;;29.63;29.98;99472.56;6108548;28;96260;-63
2022/10/29 08:21:52;;;;;;;;;13.00;12.00;;;;;30.66;29.26;99476.72;6102583;28;96326;-64
2022/10/29 08:24:56;;;;;;;;;13.00;12.00;;;;;30.41;28.63;99483.28;6102319;28;96603;-63
2022/10/29 08:28:02;;;;;;;;;15.00;12.40;;;;;29.27;30.40;99484.09;6100631;28;96522;-65
2022/10/29 08:31:06;;;;;;;;;14.40;12.40;;;;;28.00;32.32;99484.53;6100513;28;96938;-65
2022/10/29 08:34:09;;;;;;;;;13.00;12.00;;;;;27.38;33.76;99486.53;6101044;28;96548;-63
2022/10/29 08:37:13;;;;;;;;;10.00;10.00;;;;;28.33;32.49;99486.91;6103180;28;96884;-66
2022/10/29 08:40:28;;;;;;;;;15.00;12.00;;;;;29.70;30.61;99484.00;6096259;28;96896;-64
2022/10/29 08:44:04;;;;;;;;;13.80;11.80;;;;;31.11;29.46;99487.16;6065674;28;98462;-64
2022/10/29 08:47:13;;;;;;;;;12.25;11.25;;;;;32.68;26.46;99480.84;6086627;28;96630;-65
2022/10/29 08:50:24;;;;;;;;;9.20;9.20;;;;;33.49;24.74;99471.97;6087478;28;96320;-65
2022/10/29 08:53:35;;;;;;;;;10.00;10.00;;;;;34.67;23.69;99484.00;6089228;28;96682;-65
2022/10/29 08:56:42;;;;;;;;;10.00;10.00;;;;;34.60;23.64;99475.47;6094040;28;98179;-69
2022/10/29 09:00:03;;;;;;;;;11.80;10.40;;;;;34.75;23.55;99466.19;6094850;28;96579;-65
2022/10/29 09:03:11;;;;;;;;;11.60;9.40;;;;;34.93;23.74;99463.75;6093116;28;97255;-67
2022/10/29 09:06:23;;;;;;;;;8.00;7.60;;;;;34.94;23.32;99471.81;6098753;28;96505;-64
2022/10/29 09:09:33;;;;;;;;;11.00;10.80;;;;;35.05;22.80;99472.81;6092325;28;98318;-64
2022/10/29 09:12:53;;;;;;;;;9.80;9.00;;;;;35.27;22.91;99474.06;6094080;28;97161;-65
2022/10/29 09:16:19;;;;;;;;;9.50;9.00;;;;;35.54;22.26;99477.75;6093737;28;96483;-65
2022/10/29 09:19:43;;;;;;;;;10.00;10.00;;;;;35.61;22.45;99480.69;6094114;28;96321;-61
2022/10/29 09:22:56;;;;;;;;;8.00;8.00;;;;;35.68;21.90;99471.63;6085600;28;97565;-60
2022/10/29 09:26:03;;;;;;;;;10.40;9.40;;;;;36.08;21.41;99479.47;6080137;28;96692;-61
2022/10/29 09:29:27;;;;;;;;;9.40;9.00;;;;;36.40;21.65;99469.56;6085740;28;96426;-62
2022/10/29 09:32:38;;;;;;;;;10.00;9.00;;;;;37.15;21.41;99463.72;6092946;28;96280;-60
2022/10/29 09:35:46;;;;;;;;;9.60;8.60;;;;;37.39;20.83;99459.53;6095938;28;96928;-62
2022/10/29 09:38:56;;;;;;;;;8.00;7.00;;;;;37.63;20.51;99464.59;6096760;28;96486;-61
2022/10/29 09:42:02;;;;;;;;;9.40;9.00;;;;;37.77;20.03;99452.69;6096901;28;96529;-62
2022/10/29 09:45:12;;;;;;;;;9.25;8.25;;;;;38.40;19.51;99463.59;6100391;28;96309;-62
2022/10/29 09:48:22;;;;;;;;;8.00;7.25;;;;;38.74;19.68;99460.56;6097380;28;96270;-61
2022/10/29 09:51:37;;;;;;;;;7.00;6.00;;;;;38.94;19.17;99462.69;6095716;28;97732;-62
2022/10/29 09:54:40;;;;;;;;;8.00;8.00;;;;;38.79;18.42;99465.81;6094552;28;96313;-61
2022/10/29 09:57:44;;;;;;;;;6.00;6.00;;;;;38.87;18.63;99448.53;6096905;28;96486;-61
2022/10/29 10:00:47;;;;;;;;;7.00;6.00;;;;;38.95;18.95;99446.59;6097957;28;96256;-61
2022/10/29 10:03:58;;;;;;;;;6.00;6.00;;;;;38.31;19.43;99449.06;6097517;28;96609;-62
2022/10/29 10:07:08;;;;;;;;;8.00;7.00;;;;;37.48;19.80;99440.34;6080324;28;97746;-61
2022/10/29 10:10:21;;;;;;;;;6.00;5.00;;;;;37.20;20.23;99429.63;6075948;28;96315;-62
2022/10/29 10:13:26;;;;;;;;;6.00;5.00;;;;;37.53;20.11;99440.03;6075665;28;96328;-61
2022/10/29 10:16:33;;;;;;;;;5.00;5.00;;;;;37.44;20.39;99431.06;6074727;28;96293;-61
2022/10/29 10:19:44;;;;;;;;;6.00;6.00;;;;;37.01;20.52;99428.97;6086641;28;98032;-61
2022/10/29 10:22:47;;;;;;;;;7.00;6.60;;;;;36.77;21.29;99425.53;6080662;28;96631;-62
2022/10/29 10:25:53;;;;;;;;;6.00;5.00;;;;;36.10;21.29;99423.78;6078828;28;97546;-63
2022/10/29 10:29:06;;;;;;;;;6.00;5.75;;;;;35.68;21.97;99412.72;6075242;28;97068;-63
2022/10/29 10:32:14;;;;;;;;;6.00;5.20;;;;;35.74;22.23;99408.38;6077234;28;96604;-61
2022/10/29 10:35:30;;;;;;;;;5.00;5.00;;;;;36.14;21.65;99411.44;6074420;28;96806;-62
2022/10/29 10:38:43;;;;;;;;;5.00;5.00;;;;;36.55;20.88;99406.78;6075051;28;97777;-62
2022/10/29 10:41:49;;;;;;;;;7.40;6.00;;;;;37.02;20.43;99420.19;6076984;28;96346;-61
2022/10/29 10:44:57;;;;;;;;;7.00;5.00;;;;;36.77;20.92;99405.84;6084527;28;98742;-61
2022/10/29 10:48:01;;;;;;;;;6.00;5.60;;;;;36.55;20.58;99403.16;6091788;28;96280;-60
2022/10/29 10:51:18;;;;;;;;;7.00;6.33;;;;;36.14;21.46;99391.78;6074090;28;97379;-61
2022/10/29 10:54:28;;;;;;;;;7.00;7.00;;;;;35.68;21.92;99385.44;6078545;28;97912;-61
2022/10/29 10:57:36;;;;;;;;;7.00;6.00;;;;;35.78;21.54;99393.22;6062343;28;98612;-63
2022/10/29 11:00:44;;;;;;;;;7.40;7.00;;;;;36.21;21.12;99383.47;6080572;28;97585;-61
2022/10/29 11:03:54;;;;;;;;;7.60;7.00;;;;;36.40;20.63;99383.31;6094498;28;96490;-61
2022/10/29 11:07:03;;;;;;;;;6.00;5.00;;;;;35.74;21.56;99386.75;6095173;28;96351;-60
2022/10/29 11:10:12;;;;;;;;;4.00;4.00;;;;;35.22;22.22;99375.44;6091412;28;96259;-61
2022/10/29 11:13:17;;;;;;;;;7.00;6.20;;;;;34.48;22.72;99378.41;6095061;28;96428;-61
2022/10/29 11:16:30;;;;;;;;;7.00;7.00;;;;;33.50;24.11;99369.34;6094130;28;96544;-61
2022/10/29 11:19:39;;;;;;;;;8.00;7.00;;;;;33.03;25.04;99367.34;6094921;28;96627;-62
2022/10/29 11:22:54;;;;;;;;;6.75;6.00;;;;;32.67;25.38;99365.56;6094008;28;96511;-61
2022/10/29 11:26:08;;;;;;;;;8.00;7.00;;;;;32.31;25.85;99354.50;6091824;28;96574;-61
2022/10/29 11:29:20;;;;;;;;;7.25;7.00;;;;;32.38;25.96;99356.72;6093328;28;96639;-62
2022/10/29 11:32:30;;;;;;;;;7.20;6.00;;;;;32.66;25.76;99343.56;6094581;28;96485;-61
2022/10/29 11:35:43;;;;;;;;;7.00;7.00;;;;;33.46;25.03;99346.09;6093714;28;96403;-61
2022/10/29 11:38:52;;;;;;;;;7.00;7.00;;;;;33.83;24.24;99352.16;6092603;28;97843;-61
2022/10/29 11:41:58;;;;;;;;;7.00;7.00;;;;;34.40;23.28;99350.63;6093744;28;96580;-61
2022/10/29 11:45:02;;;;;;;;;7.00;7.00;;;;;34.67;23.10;99349.56;6094555;28;96428;-60
2022/10/29 11:48:17;;;;;;;;;8.50;7.00;;;;;34.68;22.95;99349.22;6078816;28;97051;-61
2022/10/29 11:51:33;;;;;;;;;8.00;7.00;;;;;34.90;23.01;99356.03;6094303;28;97800;-63
2022/10/29 11:54:52;;;;;;;;;8.00;7.00;;;;;35.43;22.57;99350.59;6095563;28;96951;-61
2022/10/29 11:58:01;;;;;;;;;7.00;6.40;;;;;35.74;22.01;99355.88;6094780;28;96654;-61
2022/10/29 12:01:14;;;;;;;;;6.40;6.00;;;;;35.35;22.57;99354.44;6075490;28;96698;-62
2022/10/29 12:04:26;;;;;;;;;6.50;6.00;;;;;35.27;22.65;99349.91;6095061;28;96281;-61
2022/10/29 12:07:43;;;;;;;;;7.00;7.00;;;;;35.02;23.04;99346.63;6095089;28;96374;-60
2022/10/29 12:10:54;;;;;;;;;6.60;6.00;;;;;34.96;23.09;99348.94;6095393;28;96366;-61
2022/10/29 12:14:09;;;;;;;;;7.80;7.00;;;;;34.71;23.42;99339.25;6080231;28;96712;-61
2022/10/29 12:17:20;;;;;;;;;7.00;5.80;;;;;34.49;23.54;99340.81;6079954;28;96747;-61
2022/10/29 12:20:32;;;;;;;;;8.00;8.00;;;;;34.15;23.78;99352.88;6098918;28;96351;-61
2022/10/29 12:23:51;;;;;;;;;8.00;7.25;;;;;33.41;24.59;99330.41;6080326;28;96711;-61
2022/10/29 12:27:04;;;;;;;;;8.00;8.00;;;;;33.05;24.96;99345.44;6076137;28;96883;-61
2022/10/29 12:30:11;;;;;;;;;8.40;8.00;;;;;32.55;25.81;99343.25;6077120;28;97517;-61
2022/10/29 12:33:22;;;;;;;;;6.00;6.00;;;;;32.36;26.16;99331.94;6082875;28;96114;-61
2022/10/29 12:36:34;;;;;;;;;6.00;6.00;;;;;32.09;26.70;99341.09;6082138;28;96347;-60
2022/10/29 12:39:45;;;;;;;;;7.00;6.25;;;;;31.72;26.96;99318.84;6081845;28;96396;-61
2022/10/29 12:42:51;;;;;;;;;9.00;8.40;;;;;31.25;27.19;99312.97;6090962;28;97485;-61
2022/10/29 12:46:03;;;;;;;;;8.00;8.00;;;;;31.01;27.90;99326.84;6082337;28;97337;-60
2022/10/29 12:49:38;;;;;;;;;7.67;7.67;;;;;30.74;28.78;99316.38;6096864;28;96442;-62
2022/10/29 12:52:45;;;;;;;;;9.40;8.00;;;;;30.34;29.38;99308.56;6098691;28;96275;-61
2022/10/29 12:55:50;;;;;;;;;6.20;6.20;;;;;29.94;29.91;99305.50;6097296;28;96269;-61
2022/10/29 12:58:58;;;;;;;;;9.00;9.00;;;;;29.87;30.09;99309.91;6086829;28;96495;-60
2022/10/29 13:02:44;;;;;;;;;7.25;7.00;;;;;29.63;30.33;99296.69;6097979;28;96290;-61
2022/10/29 13:05:47;;;;;;;;;10.00;8.50;;;;;29.68;30.63;99304.81;6015668;28;97103;-60
2022/10/29 13:08:55;;;;;;;;;8.40;8.00;;;;;29.87;30.52;99296.00;6097933;28;96271;-60
2022/10/29 13:12:01;;;;;;;;;9.50;9.00;;;;;29.88;30.61;99301.25;6099199;28;96626;-61
2022/10/29 13:15:14;;;;;;;;;8.25;8.00;;;;;29.99;30.20;99307.25;6100451;28;96627;-63
2022/10/29 13:18:23;;;;;;;;;8.60;7.40;;;;;29.81;30.36;99294.63;6090448;28;96839;-60
2022/10/29 13:21:59;;;;;;;;;7.00;7.00;;;;;29.91;30.54;99295.03;6097033;28;96287;-61
2022/10/29 13:25:28;;;;;;;;;10.00;8.00;;;;;29.82;30.61;99302.59;6089727;28;96634;-60
2022/10/29 13:28:50;;;;;;;;;9.00;8.67;;;;;29.79;30.89;99292.16;6099439;28;96655;-60
2022/10/29 13:31:55;;;;;;;;;8.60;7.00;;;;;29.53;30.92;99299.84;6093000;28;96304;-60
2022/10/29 13:35:41;;;;;;;;;9.40;9.00;;;;;29.46;31.25;99296.81;6093744;28;96928;-60
2022/10/29 13:38:46;;;;;;;;;7.50;7.00;;;;;29.15;31.56;99283.22;6087209;28;96534;-62
2022/10/29 13:42:12;;;;;;;;;9.50;8.00;;;;;29.12;31.20;99289.47;6081670;28;96437;-60
2022/10/29 13:45:16;;;;;;;;;8.25;8.25;;;;;28.84;31.75;99292.66;6084846;28;96454;-61
2022/10/29 13:48:27;;;;;;;;;8.40;8.00;;;;;28.54;32.71;99290.16;6082773;28;97213;-60
2022/10/29 13:51:38;;;;;;;;;8.00;8.00;;;;;28.29;33.17;99289.06;6088814;28;96835;-61
2022/10/29 13:54:47;;;;;;;;;8.80;7.80;;;;;28.28;33.25;99287.44;6080885;28;96359;-63
2022/10/29 13:58:02;;;;;;;;;11.00;10.00;;;;;28.00;33.76;99284.16;6095435;28;96965;-63
2022/10/29 14:01:09;;;;;;;;;8.20;8.00;;;;;27.73;33.99;99285.28;6100266;28;96370;-61
2022/10/29 14:04:23;;;;;;;;;9.80;9.00;;;;;27.46;34.24;99288.34;6093938;28;98380;-61
2022/10/29 14:07:34;;;;;;;;;9.00;9.00;;;;;27.37;34.21;99291.06;6096758;28;96854;-61
2022/10/29 14:10:46;;;;;;;;;8.00;8.00;;;;;27.37;34.33;99284.72;6086564;28;97680;-60
2022/10/29 14:13:51;;;;;;;;;10.00;9.00;;;;;27.32;34.53;99293.19;6086742;28;96925;-60
2022/10/29 14:17:14;;;;;;;;;9.00;8.00;;;;;27.17;34.85;99294.47;6074876;28;98002;-60
2022/10/29 14:20:25;;;;;;;;;10.00;8.80;;;;;26.95;35.18;99298.13;6083172;28;96949;-64
2022/10/29 14:23:30;;;;;;;;;9.00;8.00;;;;;26.72;35.36;99302.06;6091719;28;96884;-60
2022/10/29 14:26:36;;;;;;;;;9.50;9.00;;;;;26.31;36.05;99302.28;6089599;28;96269;-61
2022/10/29 14:29:40;;;;;;;;;9.00;9.00;;;;;26.06;36.90;99298.16;6094904;28;96269;-60